sensor_id;sensor_type;location;lat;lon;timestamp;P1;durP1;ratioP1;P2;durP2;ratioP2
41927;SDS011;27616;51.420;6.788;2022-07-15T00:00:11;7.03;;;1.80;;
41927;SDS011;27616;51.420;6.788;2022-07-15T00:02:38;7.00;;;1.52;;
41927;SDS011;27616;51.420;6.788;2022-07-15T00:05:05;6.93;;;1.98;;
41927;SDS011;27616;51.420;6.788;2022-07-15T00:07:32;6.93;;;1.80;;
41927;SDS011;27616;51.420;6.788;2022-07-15T00:09:58;8.85;;;1.77;;
41927;SDS011;27616;51.420;6.788;2022-07-15T00:12:49;6.20;;;1.75;;
41927;SDS011;27616;51.420;6.788;2022-07-15T00:15:15;7.15;;;1.77;;
41927;SDS011;27616;51.420;6.788;2022-07-15T00:17:42;6.22;;;1.98;;
41927;SDS011;27616;51.420;6.788;2022-07-15T00:20:08;10.32;;;1.83;;
41927;SDS011;27616;51.420;6.788;2022-07-15T00:22:35;5.43;;;1.45;;
41927;SDS011;27616;51.420;6.788;2022-07-15T00:25:01;6.95;;;2.05;;
41927;SDS011;27616;51.420;6.788;2022-07-15T00:27:27;5.72;;;1.67;;
41927;SDS011;27616;51.420;6.788;2022-07-15T00:29:53;5.00;;;1.60;;
41927;SDS011;27616;51.420;6.788;2022-07-15T00:32:19;5.78;;;1.95;;
41927;SDS011;27616;51.420;6.788;2022-07-15T00:34:45;5.13;;;1.67;;
41927;SDS011;27616;51.420;6.788;2022-07-15T00:37:11;5.60;;;1.50;;
41927;SDS011;27616;51.420;6.788;2022-07-15T00:39:37;6.38;;;1.40;;
41927;SDS011;27616;51.420;6.788;2022-07-15T00:42:03;7.25;;;2.00;;
41927;SDS011;27616;51.420;6.788;2022-07-15T00:44:29;5.80;;;1.45;;
41927;SDS011;27616;51.420;6.788;2022-07-15T00:46:55;5.65;;;1.85;;
41927;SDS011;27616;51.420;6.788;2022-07-15T00:49:21;5.30;;;1.63;;
41927;SDS011;27616;51.420;6.788;2022-07-15T00:51:49;4.28;;;1.58;;
41927;SDS011;27616;51.420;6.788;2022-07-15T00:56:48;7.30;;;1.80;;
41927;SDS011;27616;51.420;6.788;2022-07-15T00:59:16;6.88;;;1.80;;
41927;SDS011;27616;51.420;6.788;2022-07-15T01:01:44;5.72;;;1.60;;
41927;SDS011;27616;51.420;6.788;2022-07-15T01:04:11;8.38;;;1.55;;
41927;SDS011;27616;51.420;6.788;2022-07-15T01:06:38;6.70;;;1.95;;
41927;SDS011;27616;51.420;6.788;2022-07-15T01:09:05;6.28;;;1.85;;
41927;SDS011;27616;51.420;6.788;2022-07-15T01:11:31;5.30;;;1.58;;
41927;SDS011;27616;51.420;6.788;2022-07-15T01:14:00;6.03;;;1.58;;
41927;SDS011;27616;51.420;6.788;2022-07-15T01:16:27;7.35;;;1.98;;
41927;SDS011;27616;51.420;6.788;2022-07-15T01:18:53;9.90;;;1.77;;
41927;SDS011;27616;51.420;6.788;2022-07-15T01:21:22;6.32;;;1.98;;
41927;SDS011;27616;51.420;6.788;2022-07-15T01:23:50;7.20;;;2.10;;
41927;SDS011;27616;51.420;6.788;2022-07-15T01:26:34;7.07;;;1.73;;
41927;SDS011;27616;51.420;6.788;2022-07-15T01:29:00;7.15;;;1.50;;
41927;SDS011;27616;51.420;6.788;2022-07-15T01:31:26;6.47;;;1.77;;
41927;SDS011;27616;51.420;6.788;2022-07-15T01:33:53;5.53;;;1.50;;
41927;SDS011;27616;51.420;6.788;2022-07-15T01:36:19;5.57;;;1.95;;
41927;SDS011;27616;51.420;6.788;2022-07-15T01:38:52;8.07;;;2.03;;
41927;SDS011;27616;51.420;6.788;2022-07-15T01:41:19;7.97;;;2.03;;
41927;SDS011;27616;51.420;6.788;2022-07-15T01:43:45;7.72;;;1.80;;
41927;SDS011;27616;51.420;6.788;2022-07-15T01:46:11;7.85;;;1.60;;
41927;SDS011;27616;51.420;6.788;2022-07-15T01:48:37;7.45;;;2.00;;
41927;SDS011;27616;51.420;6.788;2022-07-15T01:51:41;7.78;;;2.22;;
41927;SDS011;27616;51.420;6.788;2022-07-15T01:54:07;8.23;;;1.88;;
41927;SDS011;27616;51.420;6.788;2022-07-15T01:56:33;8.85;;;2.00;;
41927;SDS011;27616;51.420;6.788;2022-07-15T01:59:02;8.15;;;1.60;;
41927;SDS011;27616;51.420;6.788;2022-07-15T02:01:28;7.25;;;1.95;;
41927;SDS011;27616;51.420;6.788;2022-07-15T02:03:56;6.45;;;1.80;;
41927;SDS011;27616;51.420;6.788;2022-07-15T02:06:22;8.60;;;2.58;;
41927;SDS011;27616;51.420;6.788;2022-07-15T02:08:48;7.22;;;2.10;;
41927;SDS011;27616;51.420;6.788;2022-07-15T02:11:16;8.90;;;2.08;;
41927;SDS011;27616;51.420;6.788;2022-07-15T02:13:46;7.30;;;1.85;;
41927;SDS011;27616;51.420;6.788;2022-07-15T02:16:14;7.97;;;2.28;;
41927;SDS011;27616;51.420;6.788;2022-07-15T02:18:40;5.28;;;1.95;;
41927;SDS011;27616;51.420;6.788;2022-07-15T02:21:06;8.45;;;1.85;;
41927;SDS011;27616;51.420;6.788;2022-07-15T02:23:32;5.95;;;1.80;;
41927;SDS011;27616;51.420;6.788;2022-07-15T02:25:59;8.23;;;2.10;;
41927;SDS011;27616;51.420;6.788;2022-07-15T02:28:26;6.53;;;1.98;;
41927;SDS011;27616;51.420;6.788;2022-07-15T02:30:52;6.18;;;1.70;;
41927;SDS011;27616;51.420;6.788;2022-07-15T02:33:18;6.10;;;1.90;;
41927;SDS011;27616;51.420;6.788;2022-07-15T02:35:44;8.40;;;2.05;;
41927;SDS011;27616;51.420;6.788;2022-07-15T02:38:11;9.90;;;2.50;;
41927;SDS011;27616;51.420;6.788;2022-07-15T02:40:37;10.70;;;1.83;;
41927;SDS011;27616;51.420;6.788;2022-07-15T02:43:03;10.90;;;2.50;;
41927;SDS011;27616;51.420;6.788;2022-07-15T02:45:33;6.95;;;2.08;;
41927;SDS011;27616;51.420;6.788;2022-07-15T02:48:03;8.90;;;2.22;;
41927;SDS011;27616;51.420;6.788;2022-07-15T02:50:33;6.47;;;2.00;;
41927;SDS011;27616;51.420;6.788;2022-07-15T02:53:00;8.00;;;1.88;;
41927;SDS011;27616;51.420;6.788;2022-07-15T02:55:27;10.07;;;2.03;;
41927;SDS011;27616;51.420;6.788;2022-07-15T02:57:53;7.38;;;1.58;;
41927;SDS011;27616;51.420;6.788;2022-07-15T03:00:19;8.40;;;1.58;;
41927;SDS011;27616;51.420;6.788;2022-07-15T03:02:49;7.55;;;1.95;;
41927;SDS011;27616;51.420;6.788;2022-07-15T03:05:16;10.20;;;2.35;;
41927;SDS011;27616;51.420;6.788;2022-07-15T03:07:44;8.68;;;1.80;;
41927;SDS011;27616;51.420;6.788;2022-07-15T03:10:15;7.25;;;1.90;;
41927;SDS011;27616;51.420;6.788;2022-07-15T03:12:42;6.07;;;1.73;;
41927;SDS011;27616;51.420;6.788;2022-07-15T03:15:08;6.35;;;2.13;;
41927;SDS011;27616;51.420;6.788;2022-07-15T03:17:35;7.30;;;1.85;;
41927;SDS011;27616;51.420;6.788;2022-07-15T03:20:01;9.10;;;2.00;;
41927;SDS011;27616;51.420;6.788;2022-07-15T03:22:32;10.15;;;1.98;;
41927;SDS011;27616;51.420;6.788;2022-07-15T03:24:58;5.95;;;1.70;;
41927;SDS011;27616;51.420;6.788;2022-07-15T03:27:25;8.50;;;1.92;;
41927;SDS011;27616;51.420;6.788;2022-07-15T03:29:51;7.10;;;1.83;;
41927;SDS011;27616;51.420;6.788;2022-07-15T03:32:19;8.43;;;1.85;;
41927;SDS011;27616;51.420;6.788;2022-07-15T03:34:46;8.10;;;2.00;;
41927;SDS011;27616;51.420;6.788;2022-07-15T03:37:16;7.88;;;1.90;;
41927;SDS011;27616;51.420;6.788;2022-07-15T03:39:43;7.20;;;1.75;;
41927;SDS011;27616;51.420;6.788;2022-07-15T03:42:09;7.80;;;1.98;;
41927;SDS011;27616;51.420;6.788;2022-07-15T03:44:37;8.98;;;1.85;;
41927;SDS011;27616;51.420;6.788;2022-07-15T03:47:03;7.13;;;2.30;;
41927;SDS011;27616;51.420;6.788;2022-07-15T03:49:29;6.93;;;2.15;;
41927;SDS011;27616;51.420;6.788;2022-07-15T03:51:58;11.02;;;2.20;;
41927;SDS011;27616;51.420;6.788;2022-07-15T03:54:25;9.77;;;2.42;;
41927;SDS011;27616;51.420;6.788;2022-07-15T03:56:56;6.72;;;1.85;;
41927;SDS011;27616;51.420;6.788;2022-07-15T03:59:22;6.20;;;1.75;;
41927;SDS011;27616;51.420;6.788;2022-07-15T04:01:49;7.78;;;1.63;;
41927;SDS011;27616;51.420;6.788;2022-07-15T04:04:15;9.48;;;1.85;;
41927;SDS011;27616;51.420;6.788;2022-07-15T04:06:41;5.68;;;1.67;;
41927;SDS011;27616;51.420;6.788;2022-07-15T04:09:07;7.18;;;2.00;;
41927;SDS011;27616;51.420;6.788;2022-07-15T04:11:35;9.25;;;2.85;;
41927;SDS011;27616;51.420;6.788;2022-07-15T04:14:01;6.70;;;2.20;;
41927;SDS011;27616;51.420;6.788;2022-07-15T04:16:27;6.75;;;2.05;;
41927;SDS011;27616;51.420;6.788;2022-07-15T04:18:55;9.60;;;2.10;;
41927;SDS011;27616;51.420;6.788;2022-07-15T04:21:21;8.95;;;2.75;;
41927;SDS011;27616;51.420;6.788;2022-07-15T04:23:47;7.82;;;2.10;;
41927;SDS011;27616;51.420;6.788;2022-07-15T04:26:13;7.22;;;1.98;;
41927;SDS011;27616;51.420;6.788;2022-07-15T04:28:40;7.93;;;2.25;;
41927;SDS011;27616;51.420;6.788;2022-07-15T04:31:06;6.88;;;2.17;;
41927;SDS011;27616;51.420;6.788;2022-07-15T04:33:42;6.60;;;1.92;;
41927;SDS011;27616;51.420;6.788;2022-07-15T04:36:08;8.00;;;2.17;;
41927;SDS011;27616;51.420;6.788;2022-07-15T04:38:34;8.82;;;2.40;;
41927;SDS011;27616;51.420;6.788;2022-07-15T04:40:59;9.27;;;2.75;;
41927;SDS011;27616;51.420;6.788;2022-07-15T04:43:25;7.72;;;2.60;;
41927;SDS011;27616;51.420;6.788;2022-07-15T04:45:51;9.90;;;3.53;;
41927;SDS011;27616;51.420;6.788;2022-07-15T04:48:19;7.85;;;2.45;;
41927;SDS011;27616;51.420;6.788;2022-07-15T04:51:04;9.55;;;2.53;;
41927;SDS011;27616;51.420;6.788;2022-07-15T04:53:31;8.77;;;2.53;;
41927;SDS011;27616;51.420;6.788;2022-07-15T04:55:57;8.75;;;2.53;;
41927;SDS011;27616;51.420;6.788;2022-07-15T04:58:22;7.53;;;2.08;;
41927;SDS011;27616;51.420;6.788;2022-07-15T05:00:49;9.48;;;2.40;;
41927;SDS011;27616;51.420;6.788;2022-07-15T05:03:18;12.35;;;3.17;;
41927;SDS011;27616;51.420;6.788;2022-07-15T05:05:44;10.70;;;4.55;;
41927;SDS011;27616;51.420;6.788;2022-07-15T05:08:15;11.77;;;3.97;;
41927;SDS011;27616;51.420;6.788;2022-07-15T05:10:45;14.50;;;4.63;;
41927;SDS011;27616;51.420;6.788;2022-07-15T05:13:11;13.85;;;3.75;;
41927;SDS011;27616;51.420;6.788;2022-07-15T05:15:37;9.23;;;2.95;;
41927;SDS011;27616;51.420;6.788;2022-07-15T05:18:15;10.50;;;3.00;;
41927;SDS011;27616;51.420;6.788;2022-07-15T05:20:41;14.45;;;3.50;;
41927;SDS011;27616;51.420;6.788;2022-07-15T05:23:06;9.00;;;2.78;;
41927;SDS011;27616;51.420;6.788;2022-07-15T05:25:37;12.27;;;3.50;;
41927;SDS011;27616;51.420;6.788;2022-07-15T05:28:03;9.40;;;2.78;;
41927;SDS011;27616;51.420;6.788;2022-07-15T05:30:29;9.10;;;2.10;;
41927;SDS011;27616;51.420;6.788;2022-07-15T05:32:59;13.18;;;2.58;;
41927;SDS011;27616;51.420;6.788;2022-07-15T05:35:25;6.68;;;1.85;;
41927;SDS011;27616;51.420;6.788;2022-07-15T05:37:51;7.70;;;1.77;;
41927;SDS011;27616;51.420;6.788;2022-07-15T05:40:23;6.50;;;1.98;;
41927;SDS011;27616;51.420;6.788;2022-07-15T05:42:51;7.95;;;1.77;;
41927;SDS011;27616;51.420;6.788;2022-07-15T05:45:18;8.05;;;1.80;;
41927;SDS011;27616;51.420;6.788;2022-07-15T05:47:51;12.18;;;2.45;;
41927;SDS011;27616;51.420;6.788;2022-07-15T05:50:21;8.43;;;1.67;;
41927;SDS011;27616;51.420;6.788;2022-07-15T05:52:47;7.10;;;1.58;;
41927;SDS011;27616;51.420;6.788;2022-07-15T05:55:14;8.90;;;1.60;;
41927;SDS011;27616;51.420;6.788;2022-07-15T05:57:41;9.60;;;3.08;;
41927;SDS011;27616;51.420;6.788;2022-07-15T06:00:06;14.20;;;3.78;;
41927;SDS011;27616;51.420;6.788;2022-07-15T06:02:38;9.23;;;2.80;;
41927;SDS011;27616;51.420;6.788;2022-07-15T06:05:08;10.77;;;2.53;;
41927;SDS011;27616;51.420;6.788;2022-07-15T06:07:38;9.40;;;2.92;;
41927;SDS011;27616;51.420;6.788;2022-07-15T06:10:04;8.70;;;2.63;;
41927;SDS011;27616;51.420;6.788;2022-07-15T06:12:32;11.75;;;2.70;;
41927;SDS011;27616;51.420;6.788;2022-07-15T06:14:58;15.98;;;3.40;;
41927;SDS011;27616;51.420;6.788;2022-07-15T06:17:24;9.23;;;2.83;;
41927;SDS011;27616;51.420;6.788;2022-07-15T06:19:52;10.95;;;2.63;;
41927;SDS011;27616;51.420;6.788;2022-07-15T06:22:18;11.35;;;2.58;;
41927;SDS011;27616;51.420;6.788;2022-07-15T06:24:44;11.55;;;2.92;;
41927;SDS011;27616;51.420;6.788;2022-07-15T06:27:10;8.32;;;2.38;;
41927;SDS011;27616;51.420;6.788;2022-07-15T06:29:36;11.13;;;2.90;;
41927;SDS011;27616;51.420;6.788;2022-07-15T06:32:01;9.52;;;2.50;;
41927;SDS011;27616;51.420;6.788;2022-07-15T06:34:27;8.20;;;2.33;;
41927;SDS011;27616;51.420;6.788;2022-07-15T06:36:53;10.57;;;2.97;;
41927;SDS011;27616;51.420;6.788;2022-07-15T06:39:19;17.30;;;7.65;;
41927;SDS011;27616;51.420;6.788;2022-07-15T06:41:45;14.55;;;7.43;;
41927;SDS011;27616;51.420;6.788;2022-07-15T06:44:13;14.43;;;7.05;;
41927;SDS011;27616;51.420;6.788;2022-07-15T06:46:51;16.08;;;5.03;;
41927;SDS011;27616;51.420;6.788;2022-07-15T06:49:17;11.00;;;3.83;;
41927;SDS011;27616;51.420;6.788;2022-07-15T06:51:42;14.60;;;5.03;;
41927;SDS011;27616;51.420;6.788;2022-07-15T06:54:09;14.05;;;5.68;;
41927;SDS011;27616;51.420;6.788;2022-07-15T06:56:37;17.50;;;5.20;;
41927;SDS011;27616;51.420;6.788;2022-07-15T06:59:03;14.18;;;4.90;;
41927;SDS011;27616;51.420;6.788;2022-07-15T07:01:30;11.10;;;4.00;;
41927;SDS011;27616;51.420;6.788;2022-07-15T07:03:56;12.32;;;4.10;;
41927;SDS011;27616;51.420;6.788;2022-07-15T07:06:22;11.50;;;3.70;;
41927;SDS011;27616;51.420;6.788;2022-07-15T07:08:48;7.85;;;2.70;;
41927;SDS011;27616;51.420;6.788;2022-07-15T07:11:15;10.82;;;3.30;;
41927;SDS011;27616;51.420;6.788;2022-07-15T07:13:42;11.88;;;3.08;;
41927;SDS011;27616;51.420;6.788;2022-07-15T07:16:08;14.15;;;3.25;;
41927;SDS011;27616;51.420;6.788;2022-07-15T07:18:34;9.23;;;2.88;;
41927;SDS011;27616;51.420;6.788;2022-07-15T07:21:00;9.75;;;2.50;;
41927;SDS011;27616;51.420;6.788;2022-07-15T07:23:26;10.30;;;2.30;;
41927;SDS011;27616;51.420;6.788;2022-07-15T07:25:53;16.35;;;2.55;;
41927;SDS011;27616;51.420;6.788;2022-07-15T07:28:19;11.32;;;2.60;;
41927;SDS011;27616;51.420;6.788;2022-07-15T07:30:45;9.55;;;3.28;;
41927;SDS011;27616;51.420;6.788;2022-07-15T07:33:11;14.32;;;3.58;;
41927;SDS011;27616;51.420;6.788;2022-07-15T07:35:38;16.77;;;4.88;;
41927;SDS011;27616;51.420;6.788;2022-07-15T07:38:04;8.75;;;3.33;;
41927;SDS011;27616;51.420;6.788;2022-07-15T07:40:30;11.32;;;2.60;;
41927;SDS011;27616;51.420;6.788;2022-07-15T07:42:56;9.25;;;2.70;;
41927;SDS011;27616;51.420;6.788;2022-07-15T07:45:22;10.23;;;2.53;;
41927;SDS011;27616;51.420;6.788;2022-07-15T07:47:48;8.10;;;2.22;;
41927;SDS011;27616;51.420;6.788;2022-07-15T07:50:15;8.73;;;2.47;;
41927;SDS011;27616;51.420;6.788;2022-07-15T07:52:41;10.65;;;2.30;;
41927;SDS011;27616;51.420;6.788;2022-07-15T07:55:07;7.72;;;2.00;;
41927;SDS011;27616;51.420;6.788;2022-07-15T07:57:34;8.18;;;1.90;;
41927;SDS011;27616;51.420;6.788;2022-07-15T08:00:00;7.00;;;2.28;;
41927;SDS011;27616;51.420;6.788;2022-07-15T08:02:37;10.88;;;2.70;;
41927;SDS011;27616;51.420;6.788;2022-07-15T08:05:03;6.95;;;1.85;;
41927;SDS011;27616;51.420;6.788;2022-07-15T08:07:29;8.90;;;1.90;;
41927;SDS011;27616;51.420;6.788;2022-07-15T08:09:55;8.10;;;1.88;;
41927;SDS011;27616;51.420;6.788;2022-07-15T08:12:21;6.57;;;1.77;;
41927;SDS011;27616;51.420;6.788;2022-07-15T08:14:46;8.45;;;2.00;;
41927;SDS011;27616;51.420;6.788;2022-07-15T08:17:15;4.20;;;1.60;;
41927;SDS011;27616;51.420;6.788;2022-07-15T08:19:41;5.20;;;1.48;;
41927;SDS011;27616;51.420;6.788;2022-07-15T08:22:07;8.15;;;1.85;;
41927;SDS011;27616;51.420;6.788;2022-07-15T08:24:32;5.20;;;1.42;;
41927;SDS011;27616;51.420;6.788;2022-07-15T08:26:58;4.93;;;1.40;;
41927;SDS011;27616;51.420;6.788;2022-07-15T08:29:24;5.00;;;1.50;;
41927;SDS011;27616;51.420;6.788;2022-07-15T08:31:49;4.80;;;1.70;;
41927;SDS011;27616;51.420;6.788;2022-07-15T08:34:15;7.15;;;1.70;;
41927;SDS011;27616;51.420;6.788;2022-07-15T08:36:41;6.13;;;1.42;;
41927;SDS011;27616;51.420;6.788;2022-07-15T08:39:06;8.38;;;1.40;;
41927;SDS011;27616;51.420;6.788;2022-07-15T08:41:35;3.70;;;1.42;;
41927;SDS011;27616;51.420;6.788;2022-07-15T08:44:02;5.63;;;1.00;;
41927;SDS011;27616;51.420;6.788;2022-07-15T08:46:28;4.13;;;1.13;;
41927;SDS011;27616;51.420;6.788;2022-07-15T08:48:55;8.38;;;1.90;;
41927;SDS011;27616;51.420;6.788;2022-07-15T08:51:30;5.47;;;1.50;;
41927;SDS011;27616;51.420;6.788;2022-07-15T08:53:57;5.22;;;1.35;;
41927;SDS011;27616;51.420;6.788;2022-07-15T08:56:23;5.85;;;1.25;;
41927;SDS011;27616;51.420;6.788;2022-07-15T08:58:49;4.60;;;1.35;;
41927;SDS011;27616;51.420;6.788;2022-07-15T09:01:15;4.82;;;1.10;;
41927;SDS011;27616;51.420;6.788;2022-07-15T09:03:41;3.83;;;1.33;;
41927;SDS011;27616;51.420;6.788;2022-07-15T09:06:07;8.20;;;1.48;;
41927;SDS011;27616;51.420;6.788;2022-07-15T09:08:32;6.65;;;1.48;;
41927;SDS011;27616;51.420;6.788;2022-07-15T09:11:00;4.75;;;1.30;;
41927;SDS011;27616;51.420;6.788;2022-07-15T09:13:36;5.90;;;1.38;;
41927;SDS011;27616;51.420;6.788;2022-07-15T09:16:07;3.80;;;1.15;;
41927;SDS011;27616;51.420;6.788;2022-07-15T09:18:44;3.90;;;1.02;;
41927;SDS011;27616;51.420;6.788;2022-07-15T09:21:15;6.88;;;1.27;;
41927;SDS011;27616;51.420;6.788;2022-07-15T09:23:52;2.58;;;1.10;;
41927;SDS011;27616;51.420;6.788;2022-07-15T09:34:22;4.78;;;1.23;;
41927;SDS011;27616;51.420;6.788;2022-07-15T09:36:50;5.70;;;1.15;;
41927;SDS011;27616;51.420;6.788;2022-07-15T09:39:20;3.40;;;0.98;;
41927;SDS011;27616;51.420;6.788;2022-07-15T09:41:47;4.93;;;1.13;;
41927;SDS011;27616;51.420;6.788;2022-07-15T09:51:52;5.60;;;1.27;;
41927;SDS011;27616;51.420;6.788;2022-07-15T09:54:23;8.98;;;1.20;;
41927;SDS011;27616;51.420;6.788;2022-07-15T09:56:50;3.20;;;0.70;;
41927;SDS011;27616;51.420;6.788;2022-07-15T09:59:17;5.72;;;0.98;;
41927;SDS011;27616;51.420;6.788;2022-07-15T10:01:44;5.28;;;1.13;;
41927;SDS011;27616;51.420;6.788;2022-07-15T10:04:14;5.22;;;1.55;;
41927;SDS011;27616;51.420;6.788;2022-07-15T10:06:42;3.75;;;1.20;;
41927;SDS011;27616;51.420;6.788;2022-07-15T10:09:08;4.90;;;1.40;;
41927;SDS011;27616;51.420;6.788;2022-07-15T10:11:38;6.53;;;1.40;;
41927;SDS011;27616;51.420;6.788;2022-07-15T10:16:55;4.68;;;0.93;;
41927;SDS011;27616;51.420;6.788;2022-07-15T10:33:38;5.30;;;1.25;;
41927;SDS011;27616;51.420;6.788;2022-07-15T10:36:04;7.35;;;1.38;;
41927;SDS011;27616;51.420;6.788;2022-07-15T10:38:32;5.32;;;1.58;;
41927;SDS011;27616;51.420;6.788;2022-07-15T10:46:23;5.13;;;1.02;;
41927;SDS011;27616;51.420;6.788;2022-07-15T10:54:01;3.47;;;0.80;;
41927;SDS011;27616;51.420;6.788;2022-07-15T10:56:34;4.47;;;1.17;;
41927;SDS011;27616;51.420;6.788;2022-07-15T10:59:23;6.97;;;1.30;;
41927;SDS011;27616;51.420;6.788;2022-07-15T11:04:36;2.35;;;0.90;;
41927;SDS011;27616;51.420;6.788;2022-07-15T11:09:42;3.17;;;0.90;;
41927;SDS011;27616;51.420;6.788;2022-07-15T11:12:11;7.75;;;2.30;;
41927;SDS011;27616;51.420;6.788;2022-07-15T11:14:45;7.15;;;2.80;;
41927;SDS011;27616;51.420;6.788;2022-07-15T11:17:19;2.55;;;0.80;;
41927;SDS011;27616;51.420;6.788;2022-07-15T11:19:48;5.13;;;0.90;;
41927;SDS011;27616;51.420;6.788;2022-07-15T11:22:16;3.40;;;1.20;;
41927;SDS011;27616;51.420;6.788;2022-07-15T11:24:43;3.40;;;1.10;;
41927;SDS011;27616;51.420;6.788;2022-07-15T11:27:09;4.93;;;1.17;;
41927;SDS011;27616;51.420;6.788;2022-07-15T11:30:08;4.63;;;1.10;;
41927;SDS011;27616;51.420;6.788;2022-07-15T11:32:29;5.35;;;1.38;;
41927;SDS011;27616;51.420;6.788;2022-07-15T11:34:57;7.55;;;1.25;;
41927;SDS011;27616;51.420;6.788;2022-07-15T11:37:25;4.80;;;1.47;;
41927;SDS011;27616;51.420;6.788;2022-07-15T11:40:06;3.35;;;1.30;;
41927;SDS011;27616;51.420;6.788;2022-07-15T11:42:36;5.45;;;1.33;;
41927;SDS011;27616;51.420;6.788;2022-07-15T11:45:32;5.50;;;1.40;;
41927;SDS011;27616;51.420;6.788;2022-07-15T11:47:59;5.93;;;0.93;;
41927;SDS011;27616;51.420;6.788;2022-07-15T11:50:25;3.47;;;0.90;;
41927;SDS011;27616;51.420;6.788;2022-07-15T11:53:00;2.88;;;0.90;;
41927;SDS011;27616;51.420;6.788;2022-07-15T11:55:26;3.17;;;1.08;;
41927;SDS011;27616;51.420;6.788;2022-07-15T11:57:52;3.20;;;1.10;;
41927;SDS011;27616;51.420;6.788;2022-07-15T12:00:18;4.00;;;1.30;;
41927;SDS011;27616;51.420;6.788;2022-07-15T12:03:05;5.68;;;1.55;;
41927;SDS011;27616;51.420;6.788;2022-07-15T12:05:34;4.88;;;2.03;;
41927;SDS011;27616;51.420;6.788;2022-07-15T12:08:00;4.30;;;1.60;;
41927;SDS011;27616;51.420;6.788;2022-07-15T12:10:33;4.45;;;2.20;;
41927;SDS011;27616;51.420;6.788;2022-07-15T12:13:00;3.65;;;1.27;;
41927;SDS011;27616;51.420;6.788;2022-07-15T12:15:28;5.63;;;1.80;;
41927;SDS011;27616;51.420;6.788;2022-07-15T12:17:54;5.25;;;2.00;;
41927;SDS011;27616;51.420;6.788;2022-07-15T12:20:21;2.40;;;0.82;;
41927;SDS011;27616;51.420;6.788;2022-07-15T12:25:30;3.28;;;0.90;;
41927;SDS011;27616;51.420;6.788;2022-07-15T12:27:57;5.05;;;1.10;;
41927;SDS011;27616;51.420;6.788;2022-07-15T12:30:29;3.88;;;1.98;;
41927;SDS011;27616;51.420;6.788;2022-07-15T12:33:20;2.17;;;0.88;;
41927;SDS011;27616;51.420;6.788;2022-07-15T12:35:47;4.47;;;1.20;;
41927;SDS011;27616;51.420;6.788;2022-07-15T12:38:24;4.07;;;1.40;;
41927;SDS011;27616;51.420;6.788;2022-07-15T12:40:52;2.80;;;1.20;;
41927;SDS011;27616;51.420;6.788;2022-07-15T12:43:19;3.45;;;1.00;;
41927;SDS011;27616;51.420;6.788;2022-07-15T12:45:45;5.45;;;1.95;;
41927;SDS011;27616;51.420;6.788;2022-07-15T12:48:11;2.80;;;1.23;;
41927;SDS011;27616;51.420;6.788;2022-07-15T12:53:17;4.90;;;1.25;;
41927;SDS011;27616;51.420;6.788;2022-07-15T12:55:45;3.20;;;0.90;;
41927;SDS011;27616;51.420;6.788;2022-07-15T12:58:14;4.35;;;1.60;;
41927;SDS011;27616;51.420;6.788;2022-07-15T13:00:42;3.83;;;1.42;;
41927;SDS011;27616;51.420;6.788;2022-07-15T13:03:16;3.05;;;1.15;;
41927;SDS011;27616;51.420;6.788;2022-07-15T13:05:46;3.28;;;1.02;;
41927;SDS011;27616;51.420;6.788;2022-07-15T13:10:46;4.45;;;1.20;;
41927;SDS011;27616;51.420;6.788;2022-07-15T13:13:16;2.15;;;0.70;;
41927;SDS011;27616;51.420;6.788;2022-07-15T13:15:43;4.13;;;1.30;;
41927;SDS011;27616;51.420;6.788;2022-07-15T13:18:10;5.38;;;1.60;;
41927;SDS011;27616;51.420;6.788;2022-07-15T13:20:37;4.72;;;1.10;;
41927;SDS011;27616;51.420;6.788;2022-07-15T13:23:03;3.08;;;1.15;;
41927;SDS011;27616;51.420;6.788;2022-07-15T13:25:29;5.15;;;1.50;;
41927;SDS011;27616;51.420;6.788;2022-07-15T13:27:56;2.47;;;1.10;;
41927;SDS011;27616;51.420;6.788;2022-07-15T13:30:24;4.43;;;1.20;;
41927;SDS011;27616;51.420;6.788;2022-07-15T13:32:50;4.43;;;1.00;;
41927;SDS011;27616;51.420;6.788;2022-07-15T13:35:16;7.57;;;1.40;;
41927;SDS011;27616;51.420;6.788;2022-07-15T13:37:42;4.45;;;1.15;;
41927;SDS011;27616;51.420;6.788;2022-07-15T13:40:09;3.90;;;0.90;;
41927;SDS011;27616;51.420;6.788;2022-07-15T13:42:37;5.13;;;1.17;;
41927;SDS011;27616;51.420;6.788;2022-07-15T13:45:04;4.95;;;1.20;;
41927;SDS011;27616;51.420;6.788;2022-07-15T13:47:31;6.32;;;1.20;;
41927;SDS011;27616;51.420;6.788;2022-07-15T13:49:57;4.15;;;1.20;;
41927;SDS011;27616;51.420;6.788;2022-07-15T13:52:44;5.63;;;1.30;;
41927;SDS011;27616;51.420;6.788;2022-07-15T13:55:14;3.95;;;0.90;;
41927;SDS011;27616;51.420;6.788;2022-07-15T13:57:42;5.28;;;1.38;;
41927;SDS011;27616;51.420;6.788;2022-07-15T14:00:12;2.85;;;1.02;;
41927;SDS011;27616;51.420;6.788;2022-07-15T14:02:42;8.70;;;1.40;;
41927;SDS011;27616;51.420;6.788;2022-07-15T14:05:09;4.30;;;1.20;;
41927;SDS011;27616;51.420;6.788;2022-07-15T14:07:36;3.28;;;0.90;;
41927;SDS011;27616;51.420;6.788;2022-07-15T14:10:05;2.67;;;1.17;;
41927;SDS011;27616;51.420;6.788;2022-07-15T14:12:32;3.67;;;1.50;;
41927;SDS011;27616;51.420;6.788;2022-07-15T14:14:58;6.35;;;1.85;;
41927;SDS011;27616;51.420;6.788;2022-07-15T14:17:24;4.30;;;0.88;;
41927;SDS011;27616;51.420;6.788;2022-07-15T14:19:50;4.38;;;1.13;;
41927;SDS011;27616;51.420;6.788;2022-07-15T14:22:16;3.55;;;1.15;;
41927;SDS011;27616;51.420;6.788;2022-07-15T14:24:42;2.70;;;1.17;;
41927;SDS011;27616;51.420;6.788;2022-07-15T14:27:08;5.32;;;1.33;;
41927;SDS011;27616;51.420;6.788;2022-07-15T14:29:34;4.72;;;1.10;;
41927;SDS011;27616;51.420;6.788;2022-07-15T14:32:00;3.28;;;1.02;;
41927;SDS011;27616;51.420;6.788;2022-07-15T14:34:26;3.10;;;1.10;;
41927;SDS011;27616;51.420;6.788;2022-07-15T14:36:52;2.50;;;1.50;;
41927;SDS011;27616;51.420;6.788;2022-07-15T14:39:18;3.67;;;1.20;;
41927;SDS011;27616;51.420;6.788;2022-07-15T14:41:44;4.30;;;1.30;;
41927;SDS011;27616;51.420;6.788;2022-07-15T14:44:10;3.60;;;1.20;;
41927;SDS011;27616;51.420;6.788;2022-07-15T14:46:36;2.58;;;0.90;;
41927;SDS011;27616;51.420;6.788;2022-07-15T14:49:02;3.45;;;1.08;;
41927;SDS011;27616;51.420;6.788;2022-07-15T14:51:28;4.25;;;0.90;;
41927;SDS011;27616;51.420;6.788;2022-07-15T14:53:54;2.28;;;0.77;;
41927;SDS011;27616;51.420;6.788;2022-07-15T14:56:20;4.30;;;1.00;;
41927;SDS011;27616;51.420;6.788;2022-07-15T14:58:46;4.93;;;1.10;;
41927;SDS011;27616;51.420;6.788;2022-07-15T15:01:12;4.97;;;1.42;;
41927;SDS011;27616;51.420;6.788;2022-07-15T15:03:38;6.15;;;1.33;;
41927;SDS011;27616;51.420;6.788;2022-07-15T15:06:04;4.47;;;2.30;;
41927;SDS011;27616;51.420;6.788;2022-07-15T15:08:30;4.35;;;1.70;;
41927;SDS011;27616;51.420;6.788;2022-07-15T15:10:56;2.65;;;1.10;;
41927;SDS011;27616;51.420;6.788;2022-07-15T15:13:22;3.45;;;0.90;;
41927;SDS011;27616;51.420;6.788;2022-07-15T15:15:48;4.93;;;0.90;;
41927;SDS011;27616;51.420;6.788;2022-07-15T15:18:14;3.78;;;1.30;;
41927;SDS011;27616;51.420;6.788;2022-07-15T15:20:40;2.83;;;1.00;;
41927;SDS011;27616;51.420;6.788;2022-07-15T15:23:06;2.33;;;1.00;;
41927;SDS011;27616;51.420;6.788;2022-07-15T15:25:32;3.15;;;1.10;;
41927;SDS011;27616;51.420;6.788;2022-07-15T15:28:18;4.45;;;1.60;;
41927;SDS011;27616;51.420;6.788;2022-07-15T15:30:44;3.53;;;1.25;;
41927;SDS011;27616;51.420;6.788;2022-07-15T15:33:10;3.33;;;1.10;;
41927;SDS011;27616;51.420;6.788;2022-07-15T15:35:36;5.13;;;2.03;;
41927;SDS011;27616;51.420;6.788;2022-07-15T15:38:02;3.88;;;1.70;;
41927;SDS011;27616;51.420;6.788;2022-07-15T15:40:27;3.05;;;1.50;;
41927;SDS011;27616;51.420;6.788;2022-07-15T15:42:53;3.60;;;1.25;;
41927;SDS011;27616;51.420;6.788;2022-07-15T15:45:19;5.75;;;1.30;;
41927;SDS011;27616;51.420;6.788;2022-07-15T15:47:45;3.38;;;1.17;;